地図

経路データ

SID SEASON NUMBER BASIN SUBBASIN NAME ISO_TIME NATURE LAT LON WMO_WIND WMO_PRES WMO_AGENCY TRACK_TYPE DIST2LAND LANDFALL IFLAG USA_AGENCY USA_ATCF_ID USA_LAT USA_LON USA_RECORD USA_STATUS USA_WIND USA_PRES USA_SSHS USA_R34_NE USA_R34_SE USA_R34_SW USA_R34_NW USA_R50_NE USA_R50_SE USA_R50_SW USA_R50_NW USA_R64_NE USA_R64_SE USA_R64_SW USA_R64_NW USA_POCI USA_ROCI USA_RMW USA_EYE TOKYO_LAT TOKYO_LON TOKYO_GRADE TOKYO_WIND TOKYO_PRES TOKYO_R50_DIR TOKYO_R50_LONG TOKYO_R50_SHORT TOKYO_R30_DIR TOKYO_R30_LONG TOKYO_R30_SHORT TOKYO_LAND CMA_LAT CMA_LON CMA_CAT CMA_WIND CMA_PRES HKO_LAT HKO_LON HKO_CAT HKO_WIND HKO_PRES NEWDELHI_LAT NEWDELHI_LON NEWDELHI_GRADE NEWDELHI_WIND NEWDELHI_PRES NEWDELHI_CI NEWDELHI_DP NEWDELHI_POCI REUNION_LAT REUNION_LON REUNION_TYPE REUNION_WIND REUNION_PRES REUNION_TNUM REUNION_CI REUNION_RMW REUNION_R34_NE REUNION_R34_SE REUNION_R34_SW REUNION_R34_NW REUNION_R50_NE REUNION_R50_SE REUNION_R50_SW REUNION_R50_NW REUNION_R64_NE REUNION_R64_SE REUNION_R64_SW REUNION_R64_NW BOM_LAT BOM_LON BOM_TYPE BOM_WIND BOM_PRES BOM_TNUM BOM_CI BOM_RMW BOM_R34_NE BOM_R34_SE BOM_R34_SW BOM_R34_NW BOM_R50_NE BOM_R50_SE BOM_R50_SW BOM_R50_NW BOM_R64_NE BOM_R64_SE BOM_R64_SW BOM_R64_NW BOM_ROCI BOM_POCI BOM_EYE BOM_POS_METHOD BOM_PRES_METHOD NADI_LAT NADI_LON NADI_CAT NADI_WIND NADI_PRES WELLINGTON_LAT WELLINGTON_LON WELLINGTON_WIND WELLINGTON_PRES DS824_LAT DS824_LON DS824_STAGE DS824_WIND DS824_PRES TD9636_LAT TD9636_LON TD9636_STAGE TD9636_WIND TD9636_PRES TD9635_LAT TD9635_LON TD9635_WIND TD9635_PRES TD9635_ROCI NEUMANN_LAT NEUMANN_LON NEUMANN_CLASS NEUMANN_WIND NEUMANN_PRES MLC_LAT MLC_LON MLC_CLASS MLC_WIND MLC_PRES USA_GUST BOM_GUST BOM_GUST_PER REUNION_GUST REUNION_GUST_PER USA_SEAHGT USA_SEARAD_NE USA_SEARAD_SE USA_SEARAD_SW USA_SEARAD_NW STORM_SPEED STORM_DIR
2011085S09130 2011 18 SI WA NOT_NAMED 2011-03-26 00:00:00 NR -8.50000 129.500 1007 bom main 184 184 ______O_______ -1 -8.50000 129.500 1007 10 178
2011085S09130 2011 18 SI WA NOT_NAMED 2011-03-26 03:00:00 NR -9.00000 129.500 1006 bom main 208 114 ______O_______ -1 -9.00000 129.500 1006 16 109
2011085S09130 2011 18 SI WA NOT_NAMED 2011-03-26 06:00:00 NR -9.00000 131.000 1005 bom main 112 112 ______O_______ -1 -9.00000 131.000 1005 13 90
2011085S09130 2011 18 SI WA NOT_NAMED 2011-03-26 09:00:00 NR -9.00003 130.773 main 116 116 ______P_______ -1 -9.00003 130.773 1005 10 270
2011085S09130 2011 18 SI WA NOT_NAMED 2011-03-26 12:00:00 NR -9.00000 130.000 1006 bom main 164 135 ______O_______ -1 -9.00000 130.000 1006 3 270
2011085S09130 2011 18 SI WA NOT_NAMED 2011-03-26 15:00:00 NR -9.00033 130.425 main 135 112 ______P_______ -1 -9.00033 130.425 1005 10 90
2011085S09130 2011 18 SI WA NOT_NAMED 2011-03-26 18:00:00 NR -9.00000 131.000 1005 bom main 112 112 ______O_______ -1 -9.00000 131.000 1005 6 90
2011085S09130 2011 18 SI WA NOT_NAMED 2011-03-26 21:00:00 NR -8.99980 131.000 main 112 112 ______P_______ -1 -8.99980 131.000 1005 0 0
2011085S09130 2011 18 SI WA NOT_NAMED 2011-03-27 00:00:00 NR -9.00000 131.000 1005 bom main 112 112 ______O_______ -1 -9.00000 131.000 1005 5 86
2011085S09130 2011 18 SI WA NOT_NAMED 2011-03-27 03:00:00 NR -8.96284 131.500 main 114 114 ______P_______ -1 -8.96284 131.500 1004 10 90
2011085S09130 2011 18 SI WA NOT_NAMED 2011-03-27 06:00:00 NR -9.00000 132.000 1003 bom main 135 135 ______O_______ -1 -9.00000 132.000 1003 6 117
2011085S09130 2011 18 SI WA NOT_NAMED 2011-03-27 09:00:00 NR -9.24989 132.075 main 160 160 ______P_______ -1 -9.24989 132.075 1004 5 178
2011085S09130 2011 18 SI WA NOT_NAMED 2011-03-27 12:00:00 NR -9.50000 132.000 1005 bom main 184 180 ______O_______ -1 -9.50000 132.000 1005 3 212
2011085S09130 2011 18 SI WA NOT_NAMED 2011-03-27 15:00:00 NR -9.53400 131.898 main 180 180 ______P_______ -1 -9.53400 131.898 1004 0 0
2011085S09130 2011 18 SI WA NOT_NAMED 2011-03-27 18:00:00 NR -9.50000 132.000 1003 bom main 184 184 ______O_______ -1 -9.50000 132.000 1003 6 87
2011085S09130 2011 18 SI WA NOT_NAMED 2011-03-27 21:00:00 NR -9.50000 132.500 1003 bom main 191 191 ______O_______ -1 -9.50000 132.500 1003 5 90
2011085S09130 2011 18 SI WA NOT_NAMED 2011-03-28 00:00:00 NR -9.50000 132.500 1005 bom main 191 191 ______O_______ -1 -9.50000 132.500 1005 0 0
2011085S09130 2011 18 SI WA NOT_NAMED 2011-03-28 03:00:00 NR -9.50000 132.500 1004 bom main 191 136 ______O_______ -1 -9.50000 132.500 1004 5 178
2011085S09130 2011 18 SI WA NOT_NAMED 2011-03-28 06:00:00 NR -10.0000 132.500 bom main 136 123 ______I_______ -1 -10.0000 132.500 1004 7 188
2011085S09130 2011 18 SI WA NOT_NAMED 2011-03-28 09:00:00 NR -10.1489 132.407 main 123 112 ______P_______ -1 -10.1489 132.407 1004 2 243
2011085S09130 2011 18 SI WA NOT_NAMED 2011-03-28 12:00:00 NR -10.1000 132.300 1005 bom main 123 123 ______O_______ -1 -10.1000 132.300 1005 1 295
2011085S09130 2011 18 SI WA NOT_NAMED 2011-03-28 15:00:00 NR -10.0850 132.270 main 123 123 ______P_______ -1 -10.0850 132.270 1004 0 0
2011085S09130 2011 18 SI WA NOT_NAMED 2011-03-28 18:00:00 NR -10.1000 132.300 1003 bom main 123 101 ______O_______ -1 -10.1000 132.300 1003 2 142
2011085S09130 2011 18 SI WA NOT_NAMED 2011-03-28 21:00:00 NR -10.2602 132.407 main 101 92 ______P_______ -1 -10.2602 132.407 1004 4 147
2011085S09130 2011 18 SI WA NOT_NAMED 2011-03-29 00:00:00 NR -10.4000 132.500 1005 bom main 92 92 ______O_______ -1 -10.4000 132.500 1005 2 149
2011085S09130 2011 18 SI WA NOT_NAMED 2011-03-29 03:00:00 NR -10.4000 132.500 1004 bom main 92 92 ______O_______ -1 -10.4000 132.500 1004 1 104
2011085S09130 2011 18 SI WA NOT_NAMED 2011-03-29 06:00:00 NR -10.4300 132.620 1001 bom main 95 89 ______O_______ -1 -10.4300 132.620 1001 2 106
2011085S09130 2011 18 SI WA NOT_NAMED 2011-03-29 09:00:00 NR -10.4600 132.720 1003 bom main 89 89 ______O_______ -1 -10.4600 132.720 1003 2 121
2011085S09130 2011 18 SI WA NOT_NAMED 2011-03-29 12:00:00 NR -10.5400 132.810 1005 bom main 95 84 ______O_______ -1 -10.5400 132.810 1005 2 146
2011085S09130 2011 18 SI WA NOT_NAMED 2011-03-29 15:00:00 NR -10.6100 132.830 1004 bom main 84 74 ______O_______ -1 -10.6100 132.830 1004 1 169
2011085S09130 2011 18 SI WA NOT_NAMED 2011-03-29 18:00:00 NR -10.6800 132.830 1002 bom main 74 64 ______O_______ -1 -10.6800 132.830 1002 2 191
2011085S09130 2011 18 SI WA NOT_NAMED 2011-03-29 21:00:00 NR -10.8000 132.800 20 1002 bom main 64 55 ______O_______ -1 -10.8000 132.800 20 1002 0.500000 0.500000 119 1006 45 45 3 266
2011085S09130 2011 18 SI WA NOT_NAMED 2011-03-30 00:00:00 NR -10.7000 132.500 20 1004 bom main 60 57 ______O_______ -1 -10.7000 132.500 20 1004 1.00000 1.00000 119 1008 45 45 5 292
2011085S09130 2011 18 SI WA NOT_NAMED 2011-03-30 03:00:00 NR -10.6000 132.300 20 1002 bom main 67 67 ______V_______ -1 -10.6000 132.300 20 1002 1.00000 1.00000 134 1008 45 45 2 297
2011085S09130 2011 18 SI WA NOT_NAMED 2011-03-30 06:00:00 NR -10.6000 132.300 20 1001 bom main 67 67 O_____V_______ jtwc_sh SH202011 -10.6000 132.300 DB 15 1010 -3 -10.6000 132.300 20 1001 1.00000 1.00000 149 1008 45 45 3 266
2011085S09130 2011 18 SI WA NOT_NAMED 2011-03-30 09:00:00 NR -10.6175 132.037 20 1001 bom main 67 67 P_____V_______ SH202011 -10.6525 132.110 DB 15 1010 -3 -10.6000 132.000 20 1001 1.00000 1.00000 164 1008 45 45 5 265
2011085S09130 2011 18 SI WA NOT_NAMED 2011-03-30 12:00:00 NR -10.6429 131.843 20 1002 bom main 70 60 O_____O_______ jtwc_sh SH202011 -10.7000 131.900 DB 15 1010 -3 -10.6000 131.800 20 1002 1.00000 1.00000 179 1008 45 45 4 262
2011085S09130 2011 18 SI WA NOT_NAMED 2011-03-30 15:00:00 NR -10.6712 131.629 20 1002 bom main 71 70 P_____O_______ SH202011 -10.7425 131.657 DB 15 1010 -3 -10.6000 131.600 20 1002 1.00000 1.00000 300 1010 45 45 4 254
2011085S09130 2011 18 SI WA NOT_NAMED 2011-03-30 18:00:00 NR -10.7500 131.450 20 1002 bom main 70 44 O_____O_______ jtwc_sh SH202011 -10.8000 131.400 DB 15 1010 -3 -10.7000 131.500 20 1002 1.00000 1.00000 75 1005 45 45 5 241
2011085S09130 2011 18 SI WA NOT_NAMED 2011-03-30 21:00:00 NR -10.8925 131.221 20 1002 bom main 44 33 P_____O_______ SH202011 -10.8850 131.142 DB 17 1008 -3 -10.9000 131.300 20 1002 1.00000 1.00000 150 1006 45 45 5 238
2011085S09130 2011 18 SI WA NOT_NAMED 2011-03-31 00:00:00 NR -11.0000 131.050 25 1002 bom main 33 22 O_____O_______ jtwc_sh SH202011 -11.0000 130.900 DB 20 1007 -3 -11.0000 131.200 25 1002 1.50000 1.50000 1008 45 45 4 230
2011085S09130 2011 18 SI WA NOT_NAMED 2011-03-31 03:00:00 NR -11.1637 130.889 25 1001 bom main 22 0 P_____O_______ SH202011 -11.1275 130.677 DB 20 1007 -3 -11.2000 131.100 25 1001 1.50000 1.50000 1008 45 45 5 216
2011085S09130 2011 18 SI WA NOT_NAMED 2011-03-31 06:00:00 NR -11.4000 130.750 25 1000 bom main 0 0 O_____O_______ jtwc_sh SH202011 -11.3000 130.500 DB 20 1007 -3 -11.5000 131.000 25 1000 1.50000 1.50000 1008 45 45 5 200
2011085S09130 2011 18 SI WA NOT_NAMED 2011-03-31 09:00:00 NR -11.6750 130.700 25 1001 bom main 0 0 P_____O_______ SH202011 -11.5500 130.400 DB 20 1007 -3 -11.8000 131.000 25 1001 1.50000 1.50000 1008 45 45 5 202
2011085S09130 2011 18 SI WA NOT_NAMED 2011-03-31 12:00:00 NR -11.9000 130.550 25 1000 bom main 11 11 O_____O_______ jtwc_sh SH202011 -11.8000 130.300 DB 20 1007 -3 -12.0000 130.800 25 1000 1.50000 1.50000 1008 45 45 5 228
2011085S09130 2011 18 SI WA NOT_NAMED 2011-03-31 15:00:00 NR -11.9825 130.354 25 1000 bom main 22 22 P_____O_______ SH202011 -11.9650 130.107 DB 22 1004 -3 -12.0000 130.600 25 1000 1.50000 1.50000 1008 45 45 5 251
2011085S09130 2011 18 SI WA NOT_NAMED 2011-03-31 18:00:00 TS -12.0500 130.100 25 999 bom main 22 22 O_____O_______ jtwc_sh SH202011 -12.1000 129.900 TD 25 1001 -1 1003 190 15 -12.0000 130.300 25 999 1.50000 1.50000 99 1004 45 45 5 259
2011085S09130 2011 18 SI WA NOT_NAMED 2011-03-31 21:00:00 TS -12.0750 129.871 25 1001 bom main 40 40 P_____O_______ SH202011 -12.2500 129.742 TD 25 1000 -1 1003 190 27 -11.9000 130.000 25 1001 179 1006 45 45 5 258
2011085S09130 2011 18 SI WA NOT_NAMED 2011-04-01 00:00:00 TS -12.1500 129.600 25 1001 bom main 63 63 O_____V_______ jtwc_sh SH202011 -12.4000 129.600 TD 25 1000 -1 1003 190 40 -11.9000 129.600 25 1001 179 1006 45 45 5 247
2011085S09130 2011 18 SI WA NOT_NAMED 2011-04-01 03:00:00 TS -12.2787 129.379 25 1000 bom main 94 94 P_____V_______ SH202011 -12.5575 129.458 TD 25 1000 -1 1004 190 42 -12.0000 129.300 25 1000 1.50000 1.50000 179 1008 45 45 5 232
2011085S09130 2011 18 SI WA NOT_NAMED 2011-04-01 06:00:00 TS -12.4500 129.200 25 998 bom main 118 112 O_____V_______ jtwc_sh SH202011 -12.7000 129.300 TD 25 1000 -1 1005 190 45 -12.2000 129.100 25 998 1.50000 1.50000 179 1008 45 45 4 220
2011085S09130 2011 18 SI WA NOT_NAMED 2011-04-01 09:00:00 TS -12.6000 129.107 25 999 bom main 117 117 P_____O_______ SH202011 -12.8000 129.115 TD 25 1002 -1 1005 190 45 -12.4000 129.100 25 999 1.50000 1.50000 179 1005 45 45 4 221
2011085S09130 2011 18 SI WA NOT_NAMED 2011-04-01 12:00:00 TS -12.7300 128.950 25 1000 bom main 123 118 O_____O_______ jtwc_sh SH202011 -12.9000 128.900 TD 25 1004 -1 1005 190 45 -12.5600 129.000 25 1000 1.50000 1.50000 119 1006 45 45 5 220
2011085S09130 2011 18 SI WA NOT_NAMED 2011-04-01 15:00:00 TS -12.9712 128.790 25 1000 bom main 121 121 P_____O_______ SH202011 -13.0424 128.680 TD 27 1002 -1 1004 175 45 -12.9000 128.900 25 1000 2.00000 2.00000 119 1006 45 45 7 217
2011085S09130 2011 18 SI WA NOT_NAMED 2011-04-01 18:00:00 TS -13.2500 128.550 25 999 bom main 134 99 O_____O_______ jtwc_sh SH202011 -13.2000 128.400 TD 30 1000 -1 1004 160 45 -13.3000 128.700 25 999 2.00000 2.00000 99 1004 45 45 8 241
2011085S09130 2011 18 SI WA NOT_NAMED 2011-04-01 21:00:00 TS -13.3751 128.050 25 998 bom main 99 64 P_____O_______ SH202011 -13.3501 128.000 TD 32 998 -1 1004 160 45 -13.4000 128.100 25 998 2.00000 2.00000 99 1004 45 45 9 254
2011085S09130 2011 18 SI WA NOT_NAMED 2011-04-02 00:00:00 TS -13.5000 127.650 30 998 bom main 64 31 O_____O_______ jtwc_sh SH202011 -13.5000 127.600 TS 35 996 0 1004 160 45 -13.5000 127.700 30 998 2.50000 2.50000 150 1006 45 45 7 254
2011085S09130 2011 18 SI WA NOT_NAMED 2011-04-02 03:00:00 TS -13.5749 127.314 30 997 bom main 31 0 P_____O_______ SH202011 -13.6499 127.327 TS 35 996 0 1004 160 45 -13.5000 127.300 30 997 2.50000 2.50000 119 1006 45 45 7 243
2011085S09130 2011 18 SI WA NOT_NAMED 2011-04-02 06:00:00 TS -13.8000 127.050 30 995 bom main 0 0 O_____O_______ jtwc_sh SH202011 -13.8000 127.100 TS 35 996 0 1004 160 45 -13.8000 127.000 30 995 3.00000 3.00000 119 1012 45 45 7 232
2011085S09130 2011 18 SI WA NOT_NAMED 2011-04-02 09:00:00 TS -13.9787 126.779 30 994 bom main 10 10 P_____O_______ SH202011 -13.9574 126.857 TS 35 996 0 1004 160 45 -14.0000 126.700 30 994 2.50000 2.50000 90 1008 45 45 5 240
2011085S09130 2011 18 SI WA NOT_NAMED 2011-04-02 12:00:00 TS -14.0500 126.600 30 994 bom main 10 0 O_____O_______ jtwc_sh SH202011 -14.1000 126.600 TS 35 996 0 1004 160 45 -14.0000 126.600 30 994 2.50000 2.50000 179 1008 45 45 5 247
2011085S09130 2011 18 SI WA NOT_NAMED 2011-04-02 15:00:00 TS -14.1775 126.292 30 994 bom main 10 0 P_____V_______ SH202011 -14.1851 126.285 TS 35 996 0 1004 160 42 -14.1700 126.300 30 994 2.00000 2.50000 134 1006 45 45 6 247
2011085S09130 2011 18 SI WA NOT_NAMED 2011-04-02 18:00:00 TS -14.3000 126.000 25 996 bom main 10 10 O_____O_______ jtwc_sh SH202011 -14.3000 126.000 TS 35 996 0 45 50 50 45 1004 160 40 -14.3000 126.000 25 996 2.00000 2.00000 90 1004 45 45 6 236
2011085S09130 2011 18 SI WA NOT_NAMED 2011-04-02 21:00:00 TS -14.5350 125.751 25 996 bom main 10 0 P_____V_______ SH202011 -14.5199 125.842 TS 35 996 0 45 50 50 45 1004 160 40 -14.5500 125.660 25 996 1.50000 1.50000 120 1005 45 45 6 221
2011085S09130 2011 18 SI WA NOT_NAMED 2011-04-03 00:00:00 TS -14.7500 125.600 25 998 bom main 0 0 O_____O_______ jtwc_sh SH202011 -14.8000 125.700 TS 35 996 0 45 50 50 45 1004 160 40 -14.7000 125.500 25 998 1.00000 1.50000 150 1006 45 45 6 219
2011085S09130 2011 18 SI WA NOT_NAMED 2011-04-03 03:00:00 TS -14.9925 125.362 25 998 bom main 0 0 P_____V_______ SH202011 -15.0850 125.465 TS 35 996 0 35 40 40 35 1004 160 35 -14.9000 125.260 25 998 1.00000 1.50000 150 1007 45 45 7 227
2011085S09130 2011 18 SI WA NOT_NAMED 2011-04-03 06:00:00 TS -15.2500 125.050 25 996 bom main 0 0 O_____O_______ jtwc_sh SH202011 -15.4000 125.200 TS 35 996 0 25 30 30 25 1004 160 30 -15.1000 124.900 25 996 1.50000 1.50000 150 1008 45 45 8 219
2011085S09130 2011 18 SI WA NOT_NAMED 2011-04-03 09:00:00 TS -15.6437 124.825 25 998 bom main 0 0 P_____O_______ SH202011 -15.7875 124.950 TS 32 998 -1 1004 160 30 -15.5000 124.700 25 998 2.00000 2.00000 119 1008 45 45 7 216
2011085S09130 2011 18 SI WA NOT_NAMED 2011-04-03 12:00:00 TS -15.8500 124.600 25 998 bom main 0 0 O_____O_______ jtwc_sh SH202011 -16.1000 124.700 TD 30 1000 -1 1004 160 30 -15.6000 124.500 25 998 2.00000 2.00000 179 1008 45 45 5 234
2011085S09130 2011 18 SI WA NOT_NAMED 2011-04-03 15:00:00 TS -15.9625 124.371 25 1000 bom main 10 10 P_____O_______ SH202011 -16.2250 124.442 TD 30 1000 -1 1004 160 30 -15.7000 124.300 25 1000 1.50000 1.50000 90 1008 45 45 4 254
2011085S09130 2011 18 SI WA NOT_NAMED 2011-04-03 18:00:00 TS -15.9750 124.155 25 1000 bom main 30 30 O_____O_______ jtwc_sh SH202011 -16.2000 124.200 TD 30 1000 -1 1004 160 30 -15.7500 124.110 25 1000 1.50000 1.50000 119 1008 45 45 4 274
2011085S09130 2011 18 SI WA NOT_NAMED 2011-04-03 21:00:00 TS -15.9362 123.935 25 1000 bom main 35 33 P_____O_______ SH202011 -16.0724 124.000 TD 25 1003 -1 1004 160 30 -15.8000 123.870 25 1000 1.00000 1.00000 119 1008 45 45 4 281
2011085S09130 2011 18 SI WA NOT_NAMED 2011-04-04 00:00:00 NR -15.9000 123.743 25 1000 bom main 33 33 O_____O_______ jtwc_sh SH202011 -15.9000 123.800 DB 20 1007 -3 1005 160 30 -15.9000 123.700 25 1000 119 1008 45 45 5 287
2011085S09130 2011 18 SI WA NOT_NAMED 2011-04-04 03:00:00 NR -15.7934 123.454 20 1002 bom main 49 49 P_____O_______ SH202011 -15.7801 123.563 DB 17 1008 -3 1006 160 30 -15.8000 123.400 20 1002 119 1008 45 45 7 287
2011085S09130 2011 18 SI WA NOT_NAMED 2011-04-04 06:00:00 TS -15.7000 123.060 20 1002 bom main 85 85 O_____O_______ jtwc_sh SH202011 -15.7000 123.300 TD 15 1010 -1 1008 160 30 -15.7000 123.000 20 1002 119 1008 45 45 8 283
2011085S09130 2011 18 SI WA NOT_NAMED 2011-04-04 09:00:00 NR -15.6132 122.633 main 105 89 ______P_______ SH202011 TD -1 -15.6132 122.633 20 1002 119 1007 1 270
2011085S09130 2011 18 SI WA NOT_NAMED 2011-04-04 12:00:00 NR -15.7000 123.000 20 1002 bom main 89 49 ______O_______ -1 -15.7000 123.000 20 1002 119 1006 45 45 12 104
2011085S09130 2011 18 SI WA NOT_NAMED 2011-04-04 13:15:00 NR -15.8200 123.520 20 1002 bom main 49 33 ______O_______ -1 -15.8200 123.520 20 1002 119 1006 45 45 15 101
2011085S09130 2011 18 SI WA NOT_NAMED 2011-04-04 15:00:00 NR -15.8477 123.786 main 44 44 ______P_______ -1 -15.8477 123.786 20 1002 119 1006 2 0
2011085S09130 2011 18 SI WA NOT_NAMED 2011-04-04 18:00:00 NR -15.7000 123.500 20 1002 bom main 59 59 ______O_______ -1 -15.7000 123.500 20 1002 119 1006 45 45 4 308
2011085S09130 2011 18 SI WA NOT_NAMED 2011-04-04 21:00:00 NR -15.6286 123.493 main 70 64 ______P_______ -1 -15.6286 123.493 20 1002 119 1007 2 270
2011085S09130 2011 18 SI WA NOT_NAMED 2011-04-05 00:00:00 NR -15.7000 123.300 20 1002 bom main 70 56 ______O_______ -1 -15.7000 123.300 20 1002 119 1008 45 45 8 241
2011085S09130 2011 18 SI WA NOT_NAMED 2011-04-05 03:00:00 NR -16.0000 122.800 1004 bom main 56 35 ______O_______ -1 -16.0000 122.800 1004 7 224
2011085S09130 2011 18 SI WA NOT_NAMED 2011-04-05 06:00:00 NR -16.2000 122.800 1004 bom main 35 30 ______O_______ -1 -16.2000 122.800 1004 3 204
2011085S09130 2011 18 SI WA NOT_NAMED 2011-04-05 09:00:00 NR -16.2572 122.674 main 30 30 ______P_______ -1 -16.2572 122.674 4 271
2011085S09130 2011 18 SI WA NOT_NAMED 2011-04-05 12:00:00 NR -16.1962 122.428 main 61 61 ______P_______ -1 -16.1962 122.428 6 288
2011085S09130 2011 18 SI WA NOT_NAMED 2011-04-05 15:00:00 NR -16.0833 122.100 main 92 92 ______P_______ -1 -16.0833 122.100 7 287
2011085S09130 2011 18 SI WA NOT_NAMED 2011-04-05 18:00:00 NR -15.9851 121.728 main 132 132 ______P_______ -1 -15.9851 121.728 7 279
2011085S09130 2011 18 SI WA NOT_NAMED 2011-04-05 21:00:00 NR -15.9684 121.349 main 162 162 ______P_______ -1 -15.9684 121.349 7 261
2011085S09130 2011 18 SI WA NOT_NAMED 2011-04-06 00:00:00 NR -16.1000 121.000 1007 bom main 178 178 ______O_______ -1 -16.1000 121.000 1007 8 235
2011085S09130 2011 18 SI WA NOT_NAMED 2011-04-06 03:00:00 NR -16.4000 120.700 1006 bom main 187 187 ______O_______ -1 -16.4000 120.700 1006 10 232
2011085S09130 2011 18 SI WA NOT_NAMED 2011-04-06 06:00:00 NR -16.7000 120.200 1005 bom main 223 223 ______O_______ -1 -16.7000 120.200 1005 10 238
2011085S09130 2011 18 SI WA NOT_NAMED 2011-04-06 09:00:00 NR -16.9105 119.831 main 256 253 ______P_______ -1 -16.9105 119.831 7 241
2011085S09130 2011 18 SI WA NOT_NAMED 2011-04-06 12:00:00 NR -17.0277 119.585 main 273 273 ______P_______ -1 -17.0277 119.585 4 248
2011085S09130 2011 18 SI WA NOT_NAMED 2011-04-06 15:00:00 NR -17.0687 119.414 main 292 292 ______P_______ -1 -17.0687 119.414 3 266
2011085S09130 2011 18 SI WA NOT_NAMED 2011-04-06 18:00:00 NR -17.0501 119.274 main 302 302 ______P_______ -1 -17.0501 119.274 3 286
2011085S09130 2011 18 SI WA NOT_NAMED 2011-04-06 21:00:00 NR -16.9884 119.118 main 325 325 ______P_______ -1 -16.9884 119.118 4 293
2011085S09130 2011 18 SI WA NOT_NAMED 2011-04-07 00:00:00 NR -16.9000 118.900 1007 bom main 348 348 ______O_______ -1 -16.9000 118.900 1007 5 291
2011085S09130 2011 18 SI WA NOT_NAMED 2011-04-07 03:00:00 NR -16.8000 118.600 1007 bom main 372 361 ______O_______ -1 -16.8000 118.600 1007 3 270
2011085S09130 2011 18 SI WA NOT_NAMED 2011-04-07 06:00:00 NR -16.9000 118.600 bom main 361 349 ______O_______ -1 -16.9000 118.600 2 153
2011085S09130 2011 18 SI WA NOT_NAMED 2011-04-07 09:00:00 NR -17.0000 118.700 bom main 349 337 ______O_______ -1 -17.0000 118.700 3 149
2011085S09130 2011 18 SI WA NOT_NAMED 2011-04-07 12:00:00 NR -17.1493 118.754 main 337 314 ______P_______ -1 -17.1493 118.754 3 172
2011085S09130 2011 18 SI WA NOT_NAMED 2011-04-07 15:00:00 NR -17.3251 118.749 main 316 293 ______P_______ -1 -17.3251 118.749 3 192
2011085S09130 2011 18 SI WA NOT_NAMED 2011-04-07 18:00:00 NR -17.4862 118.676 main 293 284 ______P_______ -1 -17.4862 118.676 3 218
2011085S09130 2011 18 SI WA NOT_NAMED 2011-04-07 21:00:00 NR -17.5916 118.528 main 286 286 ______P_______ -1 -17.5916 118.528 4 252
2011085S09130 2011 18 SI WA NOT_NAMED 2011-04-08 00:00:00 NR -17.6000 118.300 1007 bom main 292 292 ______O_______ -1 -17.6000 118.300 1007 5 280
2011085S09130 2011 18 SI WA NOT_NAMED 2011-04-08 03:00:00 NR -17.5000 118.000 1008 bom main 313 ______O_______ -1 -17.5000 118.000 1008 6 289

IBTrACS Databaseについて

本データベースは、米国NOAAが公開する1842年以降の世界の熱帯低気圧のベストトラックデータアーカイブInternational Best Track Archive for Climate Stewardship (IBTrACS)を、ウェブで閲覧しやすい形式に変換したものです。

最終更新日:2021-10-08